Terminal Aerodrome Forecast
Issued by NWS Jackson, KY

Home | Current Version | Previous Version | Text Only | Print | Product List | Glossary On
Versions: 1 2 3 4 5 6 7 8 9 10 11 12 13 14 15 16 17 18 19 20 21 22 23 24 25 26 27 28 29 30
000
FTUS43 KJKL 210540
TAFJKL
TAF
KJKL 210540Z 2106/2206 VRB03KT P6SM BKN200
     FM210800 VRB03KT P6SM VCSH OVC060
     FM211300 VRB03KT P6SM -SHRA OVC025
     FM211500 27008KT P6SM VCSH OVC015
     FM212100 29009G15KT P6SM OVC025=

USA.gov is the U.S. government's official web portal to all federal, state and local government web resources and services.